createdAt,value
2018-12-12T00:02:14.772Z,79.07
2018-12-12T00:04:44.600Z,78.88
2018-12-12T00:07:14.572Z,79.18
2018-12-12T00:09:44.525Z,79.12
2018-12-12T00:12:14.459Z,79.10
2018-12-12T00:14:44.154Z,79.14
2018-12-12T00:17:14.329Z,79.11
2018-12-12T00:19:44.189Z,79.23
2018-12-12T00:22:13.922Z,79.40
2018-12-12T00:24:48.424Z,79.42
2018-12-12T00:27:18.338Z,79.41
2018-12-12T00:29:50.164Z,79.53
2018-12-12T00:32:20.029Z,79.30
2018-12-12T00:34:49.625Z,79.62
2018-12-12T00:37:21.849Z,79.56
2018-12-12T00:39:54.428Z,79.60
2018-12-12T00:42:24.395Z,79.84
2018-12-12T00:44:54.093Z,79.84
2018-12-12T00:47:23.703Z,80.08
2018-12-12T00:49:53.505Z,80.02
2018-12-12T00:52:23.750Z,79.65
2018-12-12T00:54:54.046Z,79.51
2018-12-12T00:57:23.976Z,79.65
2018-12-12T00:59:53.746Z,79.89
2018-12-12T01:02:23.643Z,80.03
2018-12-12T01:04:53.644Z,80.20
2018-12-12T01:07:23.586Z,80.30
2018-12-12T01:09:55.387Z,80.17
2018-12-12T01:12:26.037Z,80.36
2018-12-12T01:14:56.202Z,80.51
2018-12-12T01:17:27.724Z,80.42
2018-12-12T01:19:57.896Z,80.64
2018-12-12T01:22:27.764Z,80.82
2018-12-12T01:24:57.919Z,80.87
2018-12-12T01:27:28.037Z,80.76
2018-12-12T01:29:57.771Z,80.94
2018-12-12T01:32:27.652Z,80.90
2018-12-12T01:34:57.494Z,80.85
2018-12-12T01:37:27.655Z,80.70
2018-12-12T01:39:57.503Z,80.86
2018-12-12T01:42:27.437Z,80.92
2018-12-12T01:44:57.425Z,80.86
2018-12-12T01:47:27.203Z,80.56
2018-12-12T01:49:57.319Z,80.67
2018-12-12T01:52:27.451Z,80.50
2018-12-12T01:55:01.409Z,80.68
2018-12-12T01:57:31.033Z,80.89
2018-12-12T02:00:01.285Z,80.86
2018-12-12T02:02:31.009Z,81.30
2018-12-12T02:05:01.022Z,81.13
2018-12-12T02:07:30.751Z,81.08
2018-12-12T02:10:00.565Z,80.99
2018-12-12T02:12:30.258Z,81.27
2018-12-12T02:15:00.181Z,81.34
2018-12-12T02:17:30.123Z,81.21
2018-12-12T02:19:59.802Z,81.10
2018-12-12T02:22:29.563Z,81.41
2018-12-12T02:24:59.506Z,81.45
2018-12-12T02:27:29.505Z,81.57
2018-12-12T02:29:59.522Z,81.35
2018-12-12T02:32:29.682Z,81.64
2018-12-12T02:34:59.719Z,81.51
2018-12-12T02:37:29.788Z,81.81
2018-12-12T02:39:59.658Z,81.77
2018-12-12T02:42:29.353Z,81.72
2018-12-12T02:44:59.116Z,81.59
2018-12-12T02:47:31.956Z,81.66
2018-12-12T02:50:02.413Z,81.86
2018-12-12T02:52:32.590Z,81.84
2018-12-12T02:55:02.696Z,81.94
2018-12-12T02:57:32.691Z,81.82
2018-12-12T03:00:02.305Z,82.14
2018-12-12T03:02:32.010Z,82.01
2018-12-12T03:05:01.905Z,81.70
2018-12-12T03:07:31.632Z,81.88
2018-12-12T03:10:01.495Z,81.78
2018-12-12T03:12:31.516Z,82.13
2018-12-12T03:15:01.461Z,81.93
2018-12-12T03:17:31.400Z,82.14
2018-12-12T03:20:01.063Z,82.21
2018-12-12T03:22:31.175Z,82.07
2018-12-12T03:25:00.886Z,82.33
2018-12-12T03:27:30.389Z,82.42
2018-12-12T03:30:00.063Z,82.49
2018-12-12T03:32:29.970Z,82.74
2018-12-12T03:34:59.627Z,82.67
2018-12-12T03:37:29.646Z,82.75
2018-12-12T03:39:59.459Z,82.75
2018-12-12T03:42:29.375Z,82.72
2018-12-12T03:45:02.199Z,82.66
2018-12-12T03:47:29.324Z,82.60
2018-12-12T03:49:58.833Z,82.72
2018-12-12T03:52:29.238Z,82.46
2018-12-12T03:54:59.157Z,82.48
2018-12-12T03:57:28.830Z,82.55
2018-12-12T03:59:59.076Z,82.62
2018-12-12T04:02:28.700Z,82.58
2018-12-12T04:04:58.357Z,82.40
2018-12-12T04:07:28.226Z,82.19
2018-12-12T04:09:58.416Z,82.27
2018-12-12T04:12:28.157Z,82.41
2018-12-12T04:14:58.273Z,82.49
2018-12-12T04:17:28.609Z,82.64
2018-12-12T04:19:58.710Z,82.41
2018-12-12T04:22:28.385Z,82.47
2018-12-12T04:24:58.357Z,82.50
2018-12-12T04:27:30.724Z,82.76
2018-12-12T04:30:00.538Z,82.72
2018-12-12T04:32:30.703Z,82.61
2018-12-12T04:35:00.309Z,82.06
2018-12-12T04:37:30.026Z,82.36
2018-12-12T04:40:00.040Z,82.22
2018-12-12T04:42:29.603Z,82.32
2018-12-12T04:45:01.560Z,82.35
2018-12-12T04:47:31.474Z,82.18
2018-12-12T04:50:01.232Z,82.45
2018-12-12T04:52:30.984Z,82.37
2018-12-12T04:55:04.926Z,82.51
2018-12-12T04:57:32.787Z,82.71
2018-12-12T05:00:02.673Z,82.74
2018-12-12T05:02:32.686Z,82.70
2018-12-12T05:05:02.626Z,82.77
2018-12-12T05:07:32.471Z,82.65
2018-12-12T05:10:02.408Z,82.87
2018-12-12T05:12:32.373Z,82.84
2018-12-12T05:15:02.521Z,82.98
2018-12-12T05:17:32.718Z,83.04
2018-12-12T05:20:02.484Z,83.13
2018-12-12T05:22:34.893Z,83.08
2018-12-12T05:25:04.513Z,83.16
2018-12-12T05:27:34.378Z,83.01
2018-12-12T05:30:04.770Z,83.16
2018-12-12T05:32:37.432Z,83.36
2018-12-12T05:35:07.405Z,83.29
2018-12-12T05:37:39.676Z,83.24
2018-12-12T05:40:12.257Z,83.27
2018-12-12T05:42:42.366Z,83.33
2018-12-12T05:45:13.200Z,83.29
2018-12-12T05:47:43.116Z,83.40
2018-12-12T05:50:13.502Z,83.47
2018-12-12T05:52:43.848Z,83.41
2018-12-12T05:55:17.220Z,83.41
2018-12-12T05:57:47.757Z,83.47
2018-12-12T06:00:17.873Z,83.26
2018-12-12T06:02:47.899Z,83.28
2018-12-12T06:05:17.955Z,83.34
2018-12-12T06:07:50.052Z,83.17
2018-12-12T06:10:20.718Z,83.15
2018-12-12T06:12:50.984Z,83.30
2018-12-12T06:15:21.276Z,83.46
2018-12-12T06:17:51.349Z,83.48
2018-12-12T06:20:21.234Z,83.33
2018-12-12T06:22:51.279Z,83.50
2018-12-12T06:25:21.220Z,83.57
2018-12-12T06:27:51.340Z,83.48
2018-12-12T06:30:21.677Z,83.47
2018-12-12T06:32:51.509Z,83.59
2018-12-12T06:35:21.251Z,83.71
2018-12-12T06:37:51.413Z,83.76
2018-12-12T06:40:21.595Z,83.73
2018-12-12T06:42:51.781Z,83.87
2018-12-12T06:45:21.541Z,83.75
2018-12-12T06:47:51.310Z,83.91
2018-12-12T06:50:21.511Z,83.94
2018-12-12T06:52:51.631Z,83.96
2018-12-12T06:55:21.530Z,84.01
2018-12-12T06:57:51.871Z,84.01
2018-12-12T07:00:24.127Z,84.07
2018-12-12T07:02:52.002Z,84.11
2018-12-12T07:05:21.814Z,84.17
2018-12-12T07:07:51.642Z,84.19
2018-12-12T07:10:21.974Z,84.24
2018-12-12T07:12:52.158Z,84.26
2018-12-12T07:15:22.424Z,84.39
2018-12-12T07:17:52.425Z,84.47
2018-12-12T07:20:22.120Z,84.89
2018-12-12T07:22:51.640Z,85.06
2018-12-12T07:25:21.250Z,85.41
2018-12-12T07:27:51.009Z,85.56
2018-12-12T07:30:20.653Z,84.76
2018-12-12T07:32:50.685Z,84.75
2018-12-12T07:35:22.335Z,83.71
2018-12-12T07:37:52.280Z,84.73
2018-12-12T07:40:22.275Z,84.80
2018-12-12T07:42:52.811Z,84.72
2018-12-12T07:45:22.840Z,84.53
2018-12-12T07:47:52.720Z,84.27
2018-12-12T07:50:22.512Z,84.45
2018-12-12T07:52:52.790Z,84.48
2018-12-12T07:55:26.566Z,84.42
2018-12-12T07:57:54.561Z,84.54
2018-12-12T08:00:24.584Z,84.46
2018-12-12T08:02:54.500Z,84.74
2018-12-12T08:05:25.224Z,84.92
2018-12-12T08:07:55.553Z,84.82
2018-12-12T08:10:25.615Z,84.44
2018-12-12T08:12:55.883Z,84.56
2018-12-12T08:15:31.221Z,84.41
2018-12-12T08:18:01.902Z,84.41
2018-12-12T08:20:32.091Z,84.41
2018-12-12T08:23:02.724Z,84.36
2018-12-12T08:25:34.932Z,84.14
2018-12-12T08:28:05.765Z,83.87
2018-12-12T08:30:35.942Z,84.12
2018-12-12T08:33:11.107Z,84.33
2018-12-12T08:35:36.102Z,84.45
2018-12-12T08:38:05.995Z,84.54
2018-12-12T08:40:35.862Z,84.28
2018-12-12T08:43:05.671Z,83.85
2018-12-12T08:45:35.886Z,84.45
2018-12-12T08:48:05.856Z,84.52
2018-12-12T08:50:38.487Z,84.61
2018-12-12T08:53:08.317Z,84.48
2018-12-12T08:55:38.201Z,84.42
2018-12-12T08:58:08.083Z,84.17
2018-12-12T09:00:38.038Z,84.12
2018-12-12T09:03:08.349Z,83.77
2018-12-12T09:05:40.140Z,83.78
2018-12-12T09:08:08.076Z,83.94
2018-12-12T09:10:37.989Z,83.49
2018-12-12T09:13:08.207Z,83.68
2018-12-12T09:15:41.779Z,82.90
2018-12-12T09:18:08.331Z,83.16
2018-12-12T09:20:38.361Z,83.04
2018-12-12T09:23:08.480Z,82.60
2018-12-12T09:25:38.942Z,83.04
2018-12-12T09:28:11.689Z,82.35
2018-12-12T09:30:44.434Z,82.69
2018-12-12T09:33:14.633Z,82.61
2018-12-12T09:35:44.407Z,81.90
2018-12-12T09:38:17.672Z,81.78
2018-12-12T09:40:53.167Z,81.79
2018-12-12T09:43:23.170Z,81.38
2018-12-12T09:45:53.122Z,81.76
2018-12-12T09:48:23.198Z,81.58
2018-12-12T09:50:52.853Z,81.79
2018-12-12T09:53:23.123Z,81.72
2018-12-12T09:56:02.526Z,81.76
2018-12-12T09:58:32.220Z,81.34
2018-12-12T10:01:02.207Z,81.47
2018-12-12T10:03:32.357Z,81.42
2018-12-12T10:06:02.527Z,81.29
2018-12-12T10:08:32.264Z,81.19
2018-12-12T10:11:02.360Z,80.57
2018-12-12T10:13:32.271Z,80.18
2018-12-12T10:16:02.531Z,79.95
2018-12-12T10:18:32.528Z,80.01
2018-12-12T10:21:02.338Z,79.45
2018-12-12T10:23:32.417Z,79.48
2018-12-12T10:26:02.663Z,79.16
2018-12-12T10:28:32.506Z,79.53
2018-12-12T10:31:02.348Z,79.81
2018-12-12T10:33:37.587Z,79.37
2018-12-12T10:36:02.768Z,79.53
2018-12-12T10:38:33.350Z,79.71
2018-12-12T10:41:03.231Z,79.47
2018-12-12T10:43:33.337Z,79.07
2018-12-12T10:46:06.166Z,78.76
2018-12-12T10:48:36.640Z,78.72
2018-12-12T10:51:06.662Z,77.17
2018-12-12T10:53:36.635Z,74.88
2018-12-12T10:56:09.158Z,75.63
2018-12-12T10:58:39.029Z,74.72
2018-12-12T11:01:29.268Z,73.43
2018-12-12T11:03:59.228Z,72.94
2018-12-12T11:06:32.096Z,71.36
2018-12-12T11:09:01.822Z,71.29
2018-12-12T11:11:32.179Z,70.61
2018-12-12T11:14:02.835Z,70.75
2018-12-12T11:16:33.084Z,71.60
2018-12-12T11:19:02.710Z,71.58
2018-12-12T11:21:32.867Z,72.19
2018-12-12T11:24:02.719Z,72.39
2018-12-12T11:26:32.716Z,72.90
2018-12-12T11:29:02.847Z,72.71
2018-12-12T11:31:32.936Z,73.13
2018-12-12T11:34:02.666Z,73.12
2018-12-12T11:36:32.703Z,72.77
2018-12-12T11:39:02.421Z,71.81
2018-12-12T11:41:32.375Z,71.79
2018-12-12T11:44:02.142Z,72.06
2018-12-12T11:46:32.195Z,71.85
2018-12-12T11:49:02.149Z,71.44
2018-12-12T11:51:31.622Z,70.94
2018-12-12T11:54:01.583Z,69.39
2018-12-12T11:56:31.950Z,68.46
2018-12-12T11:59:01.822Z,68.11
2018-12-12T12:01:31.779Z,68.11
2018-12-12T12:04:01.617Z,68.64
2018-12-12T12:06:31.674Z,68.86
2018-12-12T12:09:01.902Z,67.60
2018-12-12T12:11:32.409Z,63.63
2018-12-12T12:14:02.324Z,60.83
2018-12-12T12:16:32.083Z,59.13
2018-12-12T12:19:02.379Z,56.46
2018-12-12T12:21:32.318Z,54.39
2018-12-12T12:24:05.084Z,54.46
2018-12-12T12:26:35.170Z,51.01
2018-12-12T12:29:04.910Z,51.10
2018-12-12T12:31:37.701Z,50.84
2018-12-12T12:34:07.764Z,50.95
2018-12-12T12:36:37.544Z,52.53
2018-12-12T12:39:08.928Z,54.78
2018-12-12T12:41:38.645Z,56.90
2018-12-12T12:44:11.492Z,62.33
2018-12-12T12:46:39.821Z,62.33
2018-12-12T12:49:09.627Z,63.08
2018-12-12T12:51:39.837Z,64.51
2018-12-12T12:54:09.890Z,65.76
2018-12-12T12:56:39.797Z,66.76
2018-12-12T12:59:09.311Z,67.96
2018-12-12T13:01:39.930Z,68.66
2018-12-12T13:04:10.064Z,69.33
2018-12-12T13:06:39.455Z,70.31
2018-12-12T13:09:09.846Z,70.73
2018-12-12T13:11:39.518Z,71.68
2018-12-12T13:14:11.720Z,72.25
2018-12-12T13:16:41.888Z,72.46
2018-12-12T13:19:13.056Z,72.87
2018-12-12T13:21:42.807Z,73.06
2018-12-12T13:24:12.609Z,73.63
2018-12-12T13:26:42.458Z,74.08
2018-12-12T13:29:11.819Z,74.36
2018-12-12T13:31:41.868Z,74.62
2018-12-12T13:34:16.185Z,75.08
2018-12-12T13:36:41.816Z,75.40
2018-12-12T13:39:12.015Z,75.63
2018-12-12T13:41:42.039Z,75.91
2018-12-12T13:44:12.725Z,76.16
2018-12-12T13:46:42.327Z,75.97
2018-12-12T13:49:12.943Z,76.66
2018-12-12T13:51:42.804Z,76.52
2018-12-12T13:54:13.309Z,76.42
2018-12-12T13:56:42.810Z,76.50
2018-12-12T13:59:12.736Z,76.30
2018-12-12T14:01:42.876Z,76.44
2018-12-12T14:04:13.298Z,76.45
2018-12-12T14:06:43.718Z,76.25
2018-12-12T14:09:14.400Z,76.20
2018-12-12T14:11:44.618Z,76.13
2018-12-12T14:14:19.027Z,76.10
2018-12-12T14:16:48.707Z,75.39
2018-12-12T14:19:19.120Z,75.10
2018-12-12T14:21:48.726Z,74.98
2018-12-12T14:24:19.199Z,75.34
2018-12-12T14:26:49.492Z,75.53
2018-12-12T14:29:19.854Z,75.84
2018-12-12T14:31:49.734Z,76.02
2018-12-12T14:34:22.406Z,76.54
2018-12-12T14:36:52.519Z,76.81
2018-12-12T14:39:22.822Z,77.19
2018-12-12T14:41:53.309Z,77.34
2018-12-12T14:44:22.882Z,77.77
2018-12-12T14:46:55.499Z,77.99
2018-12-12T14:49:25.175Z,78.22
2018-12-12T14:51:54.810Z,78.37
2018-12-12T14:54:24.737Z,78.48
2018-12-12T14:56:54.546Z,78.63
2018-12-12T14:59:24.278Z,78.55
2018-12-12T15:01:53.777Z,78.71
2018-12-12T15:04:23.639Z,78.32
2018-12-12T15:06:53.590Z,78.22
2018-12-12T15:09:23.583Z,78.39
2018-12-12T15:11:54.011Z,78.87
2018-12-12T15:14:24.092Z,78.98
2018-12-12T15:16:54.246Z,79.17
2018-12-12T15:19:23.979Z,79.44
2018-12-12T15:21:54.173Z,79.66
2018-12-12T15:24:23.926Z,80.00
2018-12-12T15:26:53.966Z,80.41
2018-12-12T15:29:23.885Z,80.80
2018-12-12T15:31:53.967Z,81.09
2018-12-12T15:34:23.794Z,81.56
2018-12-12T15:36:53.792Z,81.75
2018-12-12T15:39:23.791Z,81.96
2018-12-12T15:41:54.014Z,82.27
2018-12-12T15:44:23.464Z,82.62
2018-12-12T15:46:53.865Z,82.75
2018-12-12T15:49:23.762Z,83.02
2018-12-12T15:51:53.966Z,83.29
2018-12-12T15:54:24.616Z,83.58
2018-12-12T15:56:54.484Z,83.50
2018-12-12T15:59:24.341Z,83.64
2018-12-12T16:01:54.668Z,84.01
2018-12-12T16:04:24.752Z,84.07
2018-12-12T16:06:55.134Z,84.09
2018-12-12T16:09:25.235Z,84.32
2018-12-12T16:11:54.923Z,84.40
2018-12-12T16:14:24.915Z,84.43
2018-12-12T16:16:54.906Z,84.54
2018-12-12T16:19:25.186Z,84.52
2018-12-12T16:21:55.013Z,84.55
2018-12-12T16:24:24.800Z,84.61
2018-12-12T16:26:54.396Z,84.81
2018-12-12T16:29:24.357Z,84.87
2018-12-12T16:31:54.391Z,84.80
2018-12-12T16:34:24.358Z,84.92
2018-12-12T16:36:54.315Z,84.94
2018-12-12T16:39:26.383Z,85.05
2018-12-12T16:41:56.375Z,85.08
2018-12-12T16:44:26.188Z,85.07
2018-12-12T16:46:55.999Z,84.89
2018-12-12T16:49:26.307Z,84.89
2018-12-12T16:51:56.124Z,84.78
2018-12-12T16:54:28.845Z,84.52
2018-12-12T16:56:58.771Z,84.38
2018-12-12T16:59:31.574Z,84.23
2018-12-12T17:02:01.660Z,84.08
2018-12-12T17:04:31.979Z,83.79
2018-12-12T17:07:02.101Z,83.58
2018-12-12T17:09:31.970Z,83.55
2018-12-12T17:12:01.684Z,83.60
2018-12-12T17:14:31.339Z,83.43
2018-12-12T17:17:01.074Z,83.35
2018-12-12T17:19:30.922Z,83.38
2018-12-12T17:22:03.396Z,83.53
2018-12-12T17:24:33.792Z,83.39
2018-12-12T17:27:03.648Z,83.45
2018-12-12T17:29:33.390Z,82.82
2018-12-12T17:32:03.463Z,82.32
2018-12-12T17:34:33.577Z,81.97
2018-12-12T17:37:06.882Z,81.82
2018-12-12T17:39:37.048Z,81.83
2018-12-12T17:42:06.793Z,81.50
2018-12-12T17:44:36.776Z,81.23
2018-12-12T17:47:07.370Z,80.84
2018-12-12T17:49:37.775Z,80.40
2018-12-12T17:52:07.652Z,80.24
2018-12-12T17:54:37.361Z,80.25
2018-12-12T17:57:07.072Z,80.15
2018-12-12T17:59:37.053Z,80.09
2018-12-12T18:02:07.413Z,79.84
2018-12-12T18:04:37.234Z,79.55
2018-12-12T18:07:07.360Z,79.22
2018-12-12T18:09:37.918Z,79.26
2018-12-12T18:12:08.060Z,79.04
2018-12-12T18:14:38.022Z,79.04
2018-12-12T18:17:10.141Z,78.84
2018-12-12T18:19:40.341Z,78.53
2018-12-12T18:22:10.271Z,78.36
2018-12-12T18:24:39.906Z,78.04
2018-12-12T18:27:10.173Z,77.82
2018-12-12T18:29:40.071Z,77.82
2018-12-12T18:32:11.165Z,78.00
2018-12-12T18:34:41.231Z,77.74
2018-12-12T18:37:11.055Z,77.64
2018-12-12T18:39:41.063Z,77.83
2018-12-12T18:42:13.127Z,77.81
2018-12-12T18:44:42.585Z,77.27
2018-12-12T18:47:12.867Z,77.18
2018-12-12T18:49:42.595Z,77.26
2018-12-12T18:52:12.981Z,77.28
2018-12-12T18:54:42.711Z,77.36
2018-12-12T18:57:12.577Z,77.47
2018-12-12T18:59:42.152Z,77.32
2018-12-12T19:02:12.556Z,77.48
2018-12-12T19:04:42.428Z,77.49
2018-12-12T19:07:13.020Z,77.53
2018-12-12T19:09:43.275Z,77.75
2018-12-12T19:12:13.470Z,77.85
2018-12-12T19:15:02.176Z,77.83
2018-12-12T19:17:31.918Z,77.76
2018-12-12T19:20:02.726Z,77.92
2018-12-12T19:22:33.344Z,78.20
2018-12-12T19:25:04.013Z,78.32
2018-12-12T19:27:34.421Z,78.30
2018-12-12T19:30:04.212Z,78.45
2018-12-12T19:32:34.527Z,78.37
2018-12-12T19:35:04.881Z,78.51
2018-12-12T19:37:36.994Z,78.85
2018-12-12T19:40:09.307Z,78.89
2018-12-12T19:42:41.114Z,79.04
2018-12-12T19:45:11.132Z,79.24
2018-12-12T19:47:41.661Z,80.75
2018-12-12T19:50:11.268Z,82.49
2018-12-12T19:52:41.114Z,80.96
2018-12-12T19:55:13.281Z,79.59
2018-12-12T19:57:44.492Z,78.37
2018-12-12T20:00:14.672Z,77.56
2018-12-12T20:02:44.967Z,77.55
2018-12-12T20:05:15.834Z,77.49
2018-12-12T20:07:46.004Z,78.01
2018-12-12T20:10:16.027Z,78.48
2018-12-12T20:12:49.650Z,78.85
2018-12-12T20:15:37.460Z,79.21
2018-12-12T20:18:07.495Z,79.46
2018-12-12T20:20:37.902Z,79.80
2018-12-12T20:23:08.639Z,79.93
2018-12-12T20:25:38.805Z,79.47
2018-12-12T20:28:08.495Z,80.40
2018-12-12T20:30:38.693Z,80.67
2018-12-12T20:33:09.561Z,80.68
2018-12-12T20:35:39.114Z,80.84
2018-12-12T20:38:15.563Z,80.99
2018-12-12T20:40:45.582Z,81.16
2018-12-12T20:43:15.618Z,81.25
2018-12-12T20:45:46.062Z,81.19
2018-12-12T20:48:18.820Z,81.56
2018-12-12T20:50:46.301Z,81.73
2018-12-12T20:53:18.775Z,81.82
2018-12-12T20:55:49.115Z,81.84
2018-12-12T20:58:18.657Z,81.87
2018-12-12T21:00:49.089Z,82.12
2018-12-12T21:03:19.099Z,82.23
2018-12-12T21:05:54.534Z,82.11
2018-12-12T21:08:20.136Z,82.17
2018-12-12T21:10:50.048Z,82.28
2018-12-12T21:13:19.475Z,82.47
2018-12-12T21:15:52.634Z,82.74
2018-12-12T21:18:25.737Z,82.92
2018-12-12T21:20:56.097Z,82.94
2018-12-12T21:23:26.222Z,83.25
2018-12-12T21:25:59.143Z,83.21
2018-12-12T21:28:26.239Z,83.43
2018-12-12T21:30:55.864Z,83.57
2018-12-12T21:33:28.491Z,83.61
2018-12-12T21:36:01.279Z,83.61
2018-12-12T21:38:31.493Z,83.55
2018-12-12T21:41:01.453Z,83.50
2018-12-12T21:43:34.136Z,83.19
2018-12-12T21:46:07.583Z,82.52
2018-12-12T21:48:37.503Z,82.04
2018-12-12T21:51:07.556Z,81.76
2018-12-12T21:53:37.779Z,81.48
2018-12-12T21:56:07.592Z,81.21
2018-12-12T21:58:38.170Z,80.86
2018-12-12T22:01:08.152Z,80.62
2018-12-12T22:03:37.973Z,80.52
2018-12-12T22:06:07.709Z,80.31
2018-12-12T22:08:37.939Z,79.85
2018-12-12T22:11:11.259Z,79.23
2018-12-12T22:13:47.806Z,79.17
2018-12-12T22:16:15.298Z,79.24
2018-12-12T22:18:45.252Z,79.18
2018-12-12T22:21:19.758Z,79.17
2018-12-12T22:23:50.286Z,78.70
2018-12-12T22:26:19.910Z,78.59
2018-12-12T22:28:49.884Z,78.77
2018-12-12T22:31:19.908Z,78.87
2018-12-12T22:33:50.227Z,79.00
2018-12-12T22:36:23.118Z,79.08
2018-12-12T22:38:53.390Z,79.18
2018-12-12T22:41:23.064Z,79.46
2018-12-12T22:43:53.484Z,79.65
2018-12-12T22:46:23.822Z,79.83
2018-12-12T22:48:55.370Z,79.83
2018-12-12T22:51:25.119Z,89.62
2018-12-12T22:53:54.858Z,86.03
2018-12-12T22:56:25.185Z,82.59
2018-12-12T22:58:55.667Z,81.23
2018-12-12T23:01:25.817Z,80.62
2018-12-12T23:03:59.353Z,80.29
2018-12-12T23:06:31.835Z,80.43
2018-12-12T23:09:01.876Z,80.53
2018-12-12T23:11:31.924Z,80.74
2018-12-12T23:14:04.700Z,81.05
2018-12-12T23:16:34.615Z,81.54
2018-12-12T23:19:06.464Z,81.62
2018-12-12T23:21:40.201Z,82.28
2018-12-12T23:24:09.853Z,82.46
2018-12-12T23:26:40.219Z,83.00
2018-12-12T23:29:12.344Z,83.30
2018-12-12T23:31:39.865Z,83.41
2018-12-12T23:34:09.938Z,83.63
2018-12-12T23:36:39.854Z,84.00
2018-12-12T23:39:10.021Z,84.40
2018-12-12T23:41:45.305Z,84.26
2018-12-12T23:44:15.423Z,84.69
2018-12-12T23:46:45.477Z,85.06
2018-12-12T23:49:15.585Z,85.03
2018-12-12T23:51:47.632Z,85.08
2018-12-12T23:54:17.848Z,85.34
2018-12-12T23:56:47.903Z,85.38
2018-12-12T23:59:19.880Z,85.52
